createdAt,value
2024-04-11T00:00:25.030Z,538.00
2024-04-11T00:01:25.331Z,539.00
2024-04-11T00:02:25.119Z,539.00
2024-04-11T00:03:25.046Z,512.00
2024-04-11T00:04:25.023Z,537.00
2024-04-11T00:05:24.924Z,538.00
2024-04-11T00:06:24.815Z,537.00
2024-04-11T00:07:24.755Z,540.00
2024-04-11T00:08:24.738Z,540.00
2024-04-11T00:09:24.693Z,542.00
2024-04-11T00:10:24.639Z,541.00
2024-04-11T00:11:24.667Z,543.00
2024-04-11T00:12:24.688Z,541.00
2024-04-11T00:13:24.631Z,541.00
2024-04-11T00:14:24.714Z,544.00
2024-04-11T00:15:24.644Z,546.00
2024-04-11T00:16:24.705Z,545.00
2024-04-11T00:17:24.757Z,543.00
2024-04-11T00:18:24.970Z,538.00
2024-04-11T00:19:24.703Z,537.00
2024-04-11T00:20:24.754Z,539.00
2024-04-11T00:21:24.684Z,533.00
2024-04-11T00:22:24.727Z,536.00
2024-04-11T00:23:24.821Z,536.00
2024-04-11T00:24:24.729Z,537.00
2024-04-11T00:25:24.702Z,537.00
2024-04-11T00:26:24.750Z,537.00
2024-04-11T00:27:24.671Z,539.00
2024-04-11T00:28:24.647Z,534.00
2024-04-11T00:29:24.703Z,532.00
2024-04-11T00:30:24.583Z,530.00
2024-04-11T00:31:24.511Z,529.00
2024-04-11T00:32:24.772Z,529.00
2024-04-11T00:33:24.693Z,529.00
2024-04-11T00:34:24.560Z,532.00
2024-04-11T00:35:24.390Z,531.00
2024-04-11T00:36:24.298Z,529.00
2024-04-11T00:37:24.247Z,532.00
2024-04-11T00:38:24.230Z,532.00
2024-04-11T00:39:24.173Z,533.00
2024-04-11T00:40:24.131Z,533.00
2024-04-11T00:41:24.142Z,530.00
2024-04-11T00:42:24.053Z,530.00
2024-04-11T00:43:24.011Z,531.00
2024-04-11T00:44:24.000Z,529.00
2024-04-11T00:46:26.813Z,526.00
2024-04-11T00:47:27.941Z,527.00
2024-04-11T00:48:27.937Z,526.00
2024-04-11T00:49:27.884Z,527.00
2024-04-11T00:50:27.877Z,527.00
2024-04-11T00:51:27.835Z,524.00
2024-04-11T00:52:27.838Z,522.00
2024-04-11T00:53:27.930Z,526.00
2024-04-11T00:54:27.868Z,525.00
2024-04-11T00:55:27.905Z,526.00
2024-04-11T00:56:27.895Z,527.00
2024-04-11T00:57:27.928Z,529.00
2024-04-11T00:58:27.879Z,529.00
2024-04-11T00:59:27.930Z,528.00
2024-04-11T01:00:27.892Z,528.00
2024-04-11T01:01:27.884Z,528.00
2024-04-11T01:02:27.967Z,520.00
2024-04-11T01:03:28.144Z,521.00
2024-04-11T01:04:27.908Z,521.00
2024-04-11T01:05:27.917Z,523.00
2024-04-11T01:06:27.861Z,524.00
2024-04-11T01:07:27.868Z,523.00
2024-04-11T01:08:27.906Z,525.00
2024-04-11T01:09:27.871Z,527.00
2024-04-11T01:10:27.869Z,526.00
2024-04-11T01:11:27.934Z,528.00
2024-04-11T01:12:27.889Z,529.00
2024-04-11T01:13:27.917Z,530.00
2024-04-11T01:14:27.945Z,529.00
2024-04-11T01:15:27.894Z,526.00
2024-04-11T01:16:27.916Z,528.00
2024-04-11T01:17:28.101Z,527.00
2024-04-11T01:18:27.976Z,526.00
2024-04-11T01:19:27.954Z,523.00
2024-04-11T01:20:27.940Z,521.00
2024-04-11T01:21:27.944Z,522.00
2024-04-11T01:22:27.915Z,525.00
2024-04-11T01:23:27.944Z,527.00
2024-04-11T01:24:27.950Z,527.00
2024-04-11T01:25:27.940Z,528.00
2024-04-11T01:26:27.966Z,527.00
2024-04-11T01:27:27.940Z,526.00
2024-04-11T01:28:27.947Z,527.00
2024-04-11T01:29:27.990Z,529.00
2024-04-11T01:30:27.961Z,529.00
2024-04-11T01:31:27.995Z,525.00
2024-04-11T01:32:28.149Z,526.00
2024-04-11T01:33:28.271Z,527.00
2024-04-11T01:34:28.309Z,527.00
2024-04-11T01:35:28.208Z,527.00
2024-04-11T01:36:28.234Z,528.00
2024-04-11T01:37:28.312Z,528.00
2024-04-11T01:38:28.443Z,530.00
2024-04-11T01:39:28.441Z,531.00
2024-04-11T01:40:28.515Z,530.00
2024-04-11T01:41:28.603Z,529.00
2024-04-11T01:42:28.653Z,529.00
2024-04-11T01:43:28.740Z,531.00
2024-04-11T01:44:28.850Z,531.00
2024-04-11T01:45:28.874Z,529.00
2024-04-11T01:46:29.066Z,528.00
2024-04-11T01:47:29.071Z,528.00
2024-04-11T01:48:29.160Z,531.00
2024-04-11T01:49:29.090Z,527.00
2024-04-11T01:50:29.146Z,526.00
2024-04-11T01:51:29.124Z,523.00
2024-04-11T01:52:29.168Z,523.00
2024-04-11T01:53:29.229Z,525.00
2024-04-11T01:54:29.231Z,528.00
2024-04-11T01:55:29.283Z,529.00
2024-04-11T01:56:29.340Z,528.00
2024-04-11T01:57:29.395Z,528.00
2024-04-11T01:58:29.400Z,528.00
2024-04-11T01:59:29.417Z,531.00
2024-04-11T02:00:29.414Z,530.00
2024-04-11T02:01:29.442Z,529.00
2024-04-11T02:02:29.503Z,528.00
2024-04-11T02:03:29.633Z,530.00
2024-04-11T02:04:29.601Z,521.00
2024-04-11T02:05:29.486Z,523.00
2024-04-11T02:06:29.501Z,525.00
2024-04-11T02:07:29.484Z,526.00
2024-04-11T02:08:29.538Z,529.00
2024-04-11T02:09:29.518Z,530.00
2024-04-11T02:10:29.520Z,530.00
2024-04-11T02:11:29.577Z,531.00
2024-04-11T02:12:29.657Z,531.00
2024-04-11T02:13:29.619Z,532.00
2024-04-11T02:14:29.676Z,532.00
2024-04-11T02:15:29.610Z,529.00
2024-04-11T02:16:29.655Z,527.00
2024-04-11T02:17:29.648Z,528.00
2024-04-11T02:18:29.696Z,530.00
2024-04-11T02:19:29.631Z,524.00
2024-04-11T02:20:29.699Z,523.00
2024-04-11T02:21:29.689Z,523.00
2024-04-11T02:22:29.679Z,523.00
2024-04-11T02:23:29.708Z,522.00
2024-04-11T02:24:29.691Z,525.00
2024-04-11T02:25:29.701Z,525.00
2024-04-11T02:26:29.755Z,527.00
2024-04-11T02:27:29.738Z,527.00
2024-04-11T02:28:29.761Z,526.00
2024-04-11T02:29:29.802Z,528.00
2024-04-11T02:30:29.815Z,526.00
2024-04-11T02:31:29.838Z,530.00
2024-04-11T02:32:29.916Z,533.00
2024-04-11T02:33:30.008Z,533.00
2024-04-11T02:34:30.055Z,531.00
2024-04-11T02:35:29.937Z,530.00
2024-04-11T02:36:29.906Z,530.00
2024-04-11T02:37:29.924Z,530.00
2024-04-11T02:38:29.962Z,530.00
2024-04-11T02:39:29.932Z,534.00
2024-04-11T02:40:29.988Z,535.00
2024-04-11T02:41:30.030Z,535.00
2024-04-11T02:42:30.036Z,534.00
2024-04-11T02:43:30.070Z,533.00
2024-04-11T02:44:30.169Z,531.00
2024-04-11T02:45:30.143Z,529.00
2024-04-11T02:46:30.199Z,528.00
2024-04-11T02:47:30.258Z,527.00
2024-04-11T02:48:30.397Z,527.00
2024-04-11T02:49:30.237Z,528.00
2024-04-11T02:50:30.288Z,531.00
2024-04-11T02:51:30.290Z,533.00
2024-04-11T02:52:30.321Z,532.00
2024-04-11T02:53:30.397Z,531.00
2024-04-11T02:54:30.371Z,533.00
2024-04-11T02:55:30.398Z,532.00
2024-04-11T02:56:30.434Z,536.00
2024-04-11T02:57:30.448Z,538.00
2024-04-11T02:58:30.495Z,538.00
2024-04-11T02:59:30.625Z,535.00
2024-04-11T03:00:30.690Z,534.00
2024-04-11T03:01:30.692Z,535.00
2024-04-11T03:02:31.021Z,534.00
2024-04-11T03:03:30.952Z,533.00
2024-04-11T03:04:31.013Z,535.00
2024-04-11T03:05:31.098Z,536.00
2024-04-11T03:06:31.037Z,537.00
2024-04-11T03:07:31.094Z,535.00
2024-04-11T03:08:31.163Z,534.00
2024-04-11T03:09:31.174Z,534.00
2024-04-11T03:10:31.218Z,533.00
2024-04-11T03:11:31.332Z,533.00
2024-04-11T03:12:31.300Z,530.00
2024-04-11T03:13:31.306Z,528.00
2024-04-11T03:14:31.376Z,527.00
2024-04-11T03:15:31.365Z,529.00
2024-04-11T03:16:31.701Z,528.00
2024-04-11T03:17:31.465Z,528.00
2024-04-11T03:18:33.593Z,527.00
2024-04-11T03:19:31.404Z,524.00
2024-04-11T03:20:31.413Z,525.00
2024-04-11T03:21:31.404Z,527.00
2024-04-11T03:22:31.417Z,528.00
2024-04-11T03:23:31.463Z,527.00
2024-04-11T03:24:31.420Z,527.00
2024-04-11T03:25:31.427Z,526.00
2024-04-11T03:26:31.494Z,527.00
2024-04-11T03:27:31.441Z,528.00
2024-04-11T03:28:31.456Z,531.00
2024-04-11T03:29:31.489Z,535.00
2024-04-11T03:30:31.491Z,537.00
2024-04-11T03:31:31.470Z,538.00
2024-04-11T03:32:31.659Z,538.00
2024-04-11T03:33:31.658Z,539.00
2024-04-11T03:34:31.529Z,540.00
2024-04-11T03:35:31.499Z,541.00
2024-04-11T03:36:31.481Z,540.00
2024-04-11T03:37:31.465Z,540.00
2024-04-11T03:38:31.507Z,540.00
2024-04-11T03:39:31.463Z,538.00
2024-04-11T03:40:31.462Z,540.00
2024-04-11T03:41:31.492Z,543.00
2024-04-11T03:42:31.478Z,542.00
2024-04-11T03:43:31.570Z,538.00
2024-04-11T03:44:31.492Z,538.00
2024-04-11T03:45:31.480Z,538.00
2024-04-11T03:46:31.467Z,537.00
2024-04-11T03:47:31.588Z,537.00
2024-04-11T03:48:31.589Z,539.00
2024-04-11T03:49:31.858Z,537.00
2024-04-11T03:50:31.524Z,530.00
2024-04-11T03:51:31.913Z,537.00
2024-04-11T03:52:31.495Z,540.00
2024-04-11T03:53:31.519Z,539.00
2024-04-11T03:54:31.520Z,543.00
2024-04-11T03:55:31.535Z,540.00
2024-04-11T03:56:31.670Z,542.00
2024-04-11T03:57:31.606Z,538.00
2024-04-11T03:58:31.601Z,536.00
2024-04-11T03:59:31.646Z,540.00
2024-04-11T04:00:31.623Z,538.00
2024-04-11T04:01:31.855Z,536.00
2024-04-11T04:02:31.773Z,536.00
2024-04-11T04:03:31.861Z,534.00
2024-04-11T04:04:31.795Z,535.00
2024-04-11T04:05:31.768Z,536.00
2024-04-11T04:06:31.730Z,539.00
2024-04-11T04:07:32.867Z,540.00
2024-04-11T04:08:31.813Z,539.00
2024-04-11T04:09:31.743Z,539.00
2024-04-11T04:10:31.743Z,542.00
2024-04-11T04:11:31.909Z,539.00
2024-04-11T04:12:31.888Z,540.00
2024-04-11T04:13:31.729Z,536.00
2024-04-11T04:14:33.306Z,541.00
2024-04-11T04:15:31.727Z,540.00
2024-04-11T04:16:31.882Z,540.00
2024-04-11T04:17:31.843Z,538.00
2024-04-11T04:18:31.840Z,536.00
2024-04-11T04:19:31.746Z,538.00
2024-04-11T04:20:31.782Z,536.00
2024-04-11T04:21:31.731Z,537.00
2024-04-11T04:22:31.757Z,538.00
2024-04-11T04:23:31.799Z,538.00
2024-04-11T04:24:31.741Z,540.00
2024-04-11T04:25:31.740Z,539.00
2024-04-11T04:26:31.868Z,538.00
2024-04-11T04:27:31.767Z,537.00
2024-04-11T04:28:31.805Z,538.00
2024-04-11T04:29:31.795Z,537.00
2024-04-11T04:30:31.774Z,538.00
2024-04-11T04:31:31.756Z,541.00
2024-04-11T04:32:31.904Z,541.00
2024-04-11T04:33:32.050Z,543.00
2024-04-11T04:34:31.896Z,542.00
2024-04-11T04:35:31.790Z,541.00
2024-04-11T04:36:31.768Z,538.00
2024-04-11T04:37:39.110Z,534.00
2024-04-11T04:38:40.178Z,536.00
2024-04-11T04:39:40.093Z,536.00
2024-04-11T04:40:40.183Z,536.00
2024-04-11T04:41:40.120Z,537.00
2024-04-11T04:42:40.112Z,538.00
2024-04-11T04:43:40.104Z,536.00
2024-04-11T04:44:40.147Z,535.00
2024-04-11T04:45:40.144Z,534.00
2024-04-11T04:46:40.120Z,533.00
2024-04-11T04:47:40.339Z,532.00
2024-04-11T04:48:40.380Z,536.00
2024-04-11T04:49:40.143Z,537.00
2024-04-11T04:50:42.028Z,535.00
2024-04-11T04:51:40.144Z,531.00
2024-04-11T04:52:40.141Z,527.00
2024-04-11T04:53:40.291Z,526.00
2024-04-11T04:54:40.147Z,524.00
2024-04-11T04:55:40.168Z,523.00
2024-04-11T04:56:40.187Z,525.00
2024-04-11T04:57:40.162Z,524.00
2024-04-11T04:58:40.173Z,525.00
2024-04-11T04:59:40.190Z,526.00
2024-04-11T05:00:40.271Z,523.00
2024-04-11T05:01:40.217Z,525.00
2024-04-11T05:02:40.325Z,526.00
2024-04-11T05:03:40.549Z,528.00
2024-04-11T05:04:40.263Z,526.00
2024-04-11T05:05:40.328Z,526.00
2024-04-11T05:06:40.261Z,527.00
2024-04-11T05:07:40.267Z,528.00
2024-04-11T05:08:40.282Z,524.00
2024-04-11T05:09:40.296Z,527.00
2024-04-11T05:10:40.330Z,527.00
2024-04-11T05:11:40.490Z,524.00
2024-04-11T05:12:40.398Z,524.00
2024-04-11T05:13:40.334Z,520.00
2024-04-11T05:14:40.488Z,525.00
2024-04-11T05:15:40.386Z,525.00
2024-04-11T05:16:40.403Z,525.00
2024-04-11T05:17:40.439Z,526.00
2024-04-11T05:18:40.437Z,527.00
2024-04-11T05:19:40.365Z,524.00
2024-04-11T05:20:40.395Z,527.00
2024-04-11T05:21:40.397Z,525.00
2024-04-11T05:22:40.389Z,524.00
2024-04-11T05:23:40.413Z,523.00
2024-04-11T05:24:40.419Z,521.00
2024-04-11T05:25:40.430Z,519.00
2024-04-11T05:26:40.469Z,516.00
2024-04-11T05:27:40.445Z,519.00
2024-04-11T05:28:41.525Z,522.00
2024-04-11T05:29:40.474Z,524.00
2024-04-11T05:30:40.450Z,529.00
2024-04-11T05:31:40.461Z,520.00
2024-04-11T05:32:40.551Z,520.00
2024-04-11T05:33:40.740Z,517.00
2024-04-11T05:34:40.616Z,519.00
2024-04-11T05:35:40.524Z,519.00
2024-04-11T05:36:40.470Z,518.00
2024-04-11T05:37:40.498Z,517.00
2024-04-11T05:38:40.504Z,519.00
2024-04-11T05:39:40.745Z,521.00
2024-04-11T05:40:40.564Z,520.00
2024-04-11T05:41:40.602Z,526.00
2024-04-11T05:42:40.602Z,525.00
2024-04-11T05:43:40.690Z,525.00
2024-04-11T05:44:40.767Z,524.00
2024-04-11T05:45:40.816Z,525.00
2024-04-11T05:46:40.925Z,524.00
2024-04-11T05:47:41.379Z,524.00
2024-04-11T05:48:41.020Z,523.00
2024-04-11T05:49:41.051Z,522.00
2024-04-11T05:50:41.131Z,525.00
2024-04-11T05:51:41.138Z,524.00
2024-04-11T05:52:41.167Z,524.00
2024-04-11T05:53:41.789Z,527.00
2024-04-11T05:54:41.272Z,530.00
2024-04-11T05:55:41.315Z,529.00
2024-04-11T05:56:41.423Z,528.00
2024-04-11T05:57:41.739Z,525.00
2024-04-11T05:58:41.462Z,526.00
2024-04-11T05:59:41.801Z,528.00
2024-04-11T06:00:42.078Z,523.00
2024-04-11T06:01:41.591Z,521.00
2024-04-11T06:02:41.680Z,527.00
2024-04-11T06:03:41.805Z,525.00
2024-04-11T06:04:41.745Z,522.00
2024-04-11T06:05:41.820Z,523.00
2024-04-11T06:06:44.945Z,520.00
2024-04-11T06:07:41.713Z,521.00
2024-04-11T06:08:41.704Z,522.00
2024-04-11T06:09:41.670Z,521.00
2024-04-11T06:10:41.670Z,523.00
2024-04-11T06:11:41.828Z,524.00
2024-04-11T06:12:41.830Z,525.00
2024-04-11T06:13:41.611Z,525.00
2024-04-11T06:14:41.767Z,526.00
2024-04-11T06:15:41.614Z,527.00
2024-04-11T06:16:41.653Z,529.00
2024-04-11T06:17:41.647Z,530.00
2024-04-11T06:18:42.706Z,530.00
2024-04-11T06:19:41.678Z,531.00
2024-04-11T06:20:41.829Z,530.00
2024-04-11T06:21:41.612Z,520.00
2024-04-11T06:22:41.628Z,521.00
2024-04-11T06:23:41.797Z,523.00
2024-04-11T06:24:41.746Z,526.00
2024-04-11T06:25:41.662Z,527.00
2024-04-11T06:26:41.748Z,526.00
2024-04-11T06:27:41.699Z,519.00
2024-04-11T06:28:42.020Z,515.00
2024-04-11T06:29:41.850Z,517.00
2024-04-11T06:31:41.810Z,521.00
2024-04-11T06:32:43.229Z,521.00
2024-04-11T06:33:42.522Z,521.00
2024-04-11T06:34:42.057Z,518.00
2024-04-11T06:35:41.793Z,524.00
2024-04-11T06:36:42.151Z,523.00
2024-04-11T06:37:41.768Z,524.00
2024-04-11T06:38:41.922Z,519.00
2024-04-11T06:39:41.826Z,520.00
2024-04-11T06:40:41.814Z,520.00
2024-04-11T06:41:41.767Z,522.00
2024-04-11T06:42:41.775Z,525.00
2024-04-11T06:43:41.799Z,525.00
2024-04-11T06:44:42.284Z,521.00
2024-04-11T06:45:41.776Z,520.00
2024-04-11T06:46:41.764Z,526.00
2024-04-11T06:47:48.052Z,526.00
2024-04-11T06:48:41.885Z,524.00
2024-04-11T06:49:44.536Z,525.00
2024-04-11T06:50:41.767Z,517.00
2024-04-11T06:51:41.685Z,519.00
2024-04-11T06:52:41.664Z,521.00
2024-04-11T06:53:41.774Z,523.00
2024-04-11T06:54:41.762Z,524.00
2024-04-11T06:55:41.614Z,528.00
2024-04-11T06:56:41.648Z,529.00
2024-04-11T06:57:41.562Z,526.00
2024-04-11T06:58:41.569Z,523.00
2024-04-11T06:59:41.830Z,530.00
2024-04-11T07:00:41.534Z,530.00
2024-04-11T07:01:43.807Z,527.00
2024-04-11T07:02:41.646Z,528.00
2024-04-11T07:03:42.205Z,528.00
2024-04-11T07:04:41.868Z,526.00
2024-04-11T07:05:41.492Z,524.00
2024-04-11T07:06:41.657Z,520.00
2024-04-11T07:07:41.588Z,520.00
2024-04-11T07:08:41.592Z,519.00
2024-04-11T07:09:41.583Z,520.00
2024-04-11T07:10:41.566Z,523.00
2024-04-11T07:11:41.820Z,523.00
2024-04-11T07:12:41.607Z,525.00
2024-04-11T07:13:41.533Z,523.00
2024-04-11T07:14:41.822Z,524.00
2024-04-11T07:15:41.534Z,526.00
2024-04-11T07:16:41.889Z,523.00
2024-04-11T07:17:41.553Z,529.00
2024-04-11T07:18:41.486Z,525.00
2024-04-11T07:19:41.496Z,521.00
2024-04-11T07:20:41.586Z,512.00
2024-04-11T07:21:41.464Z,514.00
2024-04-11T07:22:41.410Z,517.00
2024-04-11T07:23:41.444Z,522.00
2024-04-11T07:24:41.778Z,521.00
2024-04-11T07:25:41.403Z,513.00
2024-04-11T07:26:41.446Z,522.00
2024-04-11T07:27:41.427Z,523.00
2024-04-11T07:28:41.416Z,522.00
2024-04-11T07:29:41.417Z,521.00
2024-04-11T07:30:41.771Z,520.00
2024-04-11T07:31:41.815Z,521.00
2024-04-11T07:32:41.804Z,516.00
2024-04-11T07:33:41.795Z,516.00
2024-04-11T07:34:41.761Z,519.00
2024-04-11T07:35:41.551Z,517.00
2024-04-11T07:36:42.156Z,519.00
2024-04-11T07:37:41.644Z,520.00
2024-04-11T07:38:41.663Z,520.00
2024-04-11T07:39:41.586Z,521.00
2024-04-11T07:40:41.562Z,520.00
2024-04-11T07:41:41.661Z,516.00
2024-04-11T07:42:41.633Z,515.00
2024-04-11T07:43:41.633Z,518.00
2024-04-11T07:44:41.824Z,518.00
2024-04-11T07:45:41.694Z,519.00
2024-04-11T07:46:47.468Z,518.00
2024-04-11T07:47:50.219Z,519.00
2024-04-11T07:48:41.788Z,518.00
2024-04-11T07:49:42.252Z,513.00
2024-04-11T07:50:41.623Z,519.00
2024-04-11T07:51:41.552Z,517.00
2024-04-11T07:52:41.538Z,518.00
2024-04-11T07:53:41.545Z,514.00
2024-04-11T07:54:47.179Z,508.00
2024-04-11T07:55:41.788Z,509.00
2024-04-11T07:56:41.461Z,499.00
2024-04-11T07:57:41.414Z,504.00
2024-04-11T07:58:41.279Z,502.00
2024-04-11T07:59:42.314Z,509.00
2024-04-11T08:00:41.349Z,508.00
2024-04-11T08:01:41.170Z,510.00
2024-04-11T08:02:41.150Z,511.00
2024-04-11T08:03:41.091Z,507.00
2024-04-11T08:04:41.120Z,508.00
2024-04-11T08:05:41.303Z,507.00
2024-04-11T08:06:41.042Z,508.00
2024-04-11T08:07:40.977Z,506.00
2024-04-11T08:08:40.983Z,507.00
2024-04-11T08:09:41.002Z,508.00
2024-04-11T08:10:41.035Z,503.00
2024-04-11T08:11:41.103Z,504.00
2024-04-11T08:12:40.992Z,508.00
2024-04-11T08:13:43.447Z,507.00
2024-04-11T08:14:41.099Z,508.00
2024-04-11T08:15:40.928Z,510.00
2024-04-11T08:16:40.983Z,507.00
2024-04-11T08:17:40.962Z,510.00
2024-04-11T08:18:40.858Z,508.00
2024-04-11T08:19:47.966Z,474.00
2024-04-11T08:20:40.698Z,499.00
2024-04-11T08:21:40.659Z,500.00
2024-04-11T08:22:40.563Z,499.00
2024-04-11T08:23:40.612Z,496.00
2024-04-11T08:24:40.493Z,509.00
2024-04-11T08:25:40.456Z,498.00
2024-04-11T08:26:40.403Z,500.00
2024-04-11T08:27:40.351Z,497.00
2024-04-11T08:28:40.288Z,497.00
2024-04-11T08:29:40.271Z,502.00
2024-04-11T08:30:40.196Z,496.00
2024-04-11T08:31:40.287Z,495.00
2024-04-11T08:32:40.148Z,496.00
2024-04-11T08:33:40.160Z,495.00
2024-04-11T08:34:40.029Z,494.00
2024-04-11T08:35:40.019Z,494.00
2024-04-11T08:36:39.912Z,498.00
2024-04-11T08:37:39.843Z,502.00
2024-04-11T08:38:39.816Z,502.00
2024-04-11T08:39:39.759Z,505.00
2024-04-11T08:40:39.706Z,506.00
2024-04-11T08:41:39.894Z,503.00
2024-04-11T08:42:39.584Z,503.00
2024-04-11T08:43:42.729Z,505.00
2024-04-11T08:44:39.875Z,505.00
2024-04-11T08:45:39.455Z,508.00
2024-04-11T08:46:39.415Z,506.00
2024-04-11T08:47:39.345Z,504.00
2024-04-11T08:48:39.619Z,503.00
2024-04-11T08:49:39.488Z,502.00
2024-04-11T08:50:39.328Z,499.00
2024-04-11T08:51:41.983Z,500.00
2024-04-11T08:52:38.967Z,500.00
2024-04-11T08:53:51.535Z,499.00
2024-04-11T08:54:39.059Z,500.00
2024-04-11T08:55:38.783Z,497.00
2024-04-11T08:56:38.860Z,496.00
2024-04-11T08:57:38.657Z,493.00
2024-04-11T08:58:38.589Z,494.00
2024-04-11T08:59:38.679Z,496.00
2024-04-11T09:00:38.480Z,496.00
2024-04-11T09:01:38.482Z,497.00
2024-04-11T09:02:38.458Z,498.00
2024-04-11T09:03:38.405Z,498.00
2024-04-11T09:04:38.261Z,498.00
2024-04-11T09:05:38.255Z,495.00
2024-04-11T09:06:38.240Z,497.00
2024-04-11T09:07:39.226Z,498.00
2024-04-11T09:08:38.449Z,499.00
2024-04-11T09:09:37.977Z,494.00
2024-04-11T09:10:37.911Z,502.00
2024-04-11T09:11:38.013Z,503.00
2024-04-11T09:12:37.834Z,506.00
2024-04-11T09:13:37.838Z,501.00
2024-04-11T09:14:37.860Z,503.00
2024-04-11T09:15:37.869Z,502.00
2024-04-11T09:16:37.890Z,505.00
2024-04-11T09:17:37.933Z,507.00
2024-04-11T09:18:37.911Z,507.00
2024-04-11T09:19:37.787Z,504.00
2024-04-11T09:20:37.857Z,505.00
2024-04-11T09:21:38.308Z,502.00
2024-04-11T09:22:37.804Z,501.00
2024-04-11T09:23:37.797Z,501.00
2024-04-11T09:24:37.805Z,495.00
2024-04-11T09:25:37.795Z,500.00
2024-04-11T09:26:37.835Z,504.00
2024-04-11T09:27:37.799Z,501.00
2024-04-11T09:28:37.948Z,500.00
2024-04-11T09:29:37.830Z,500.00
2024-04-11T09:30:37.736Z,497.00
2024-04-11T09:31:38.464Z,497.00
2024-04-11T09:32:37.808Z,500.00
2024-04-11T09:33:37.815Z,497.00
2024-04-11T09:34:39.719Z,495.00
2024-04-11T09:35:37.697Z,495.00
2024-04-11T09:36:37.631Z,492.00
2024-04-11T09:37:37.542Z,494.00
2024-04-11T09:38:37.552Z,492.00
2024-04-11T09:39:37.801Z,498.00
2024-04-11T09:40:37.362Z,495.00
2024-04-11T09:41:38.049Z,495.00
2024-04-11T09:42:37.351Z,497.00
2024-04-11T09:43:37.169Z,502.00
2024-04-11T09:44:37.116Z,502.00
2024-04-11T09:45:37.043Z,497.00
2024-04-11T09:46:37.006Z,498.00
2024-04-11T09:47:37.374Z,498.00
2024-04-11T09:48:37.069Z,500.00
2024-04-11T09:49:36.821Z,502.00
2024-04-11T09:50:36.773Z,505.00
2024-04-11T09:51:36.702Z,507.00
2024-04-11T09:52:36.624Z,499.00
2024-04-11T09:53:36.632Z,496.00
2024-04-11T09:54:36.623Z,500.00
2024-04-11T09:55:36.550Z,496.00
2024-04-11T09:56:36.598Z,500.00
2024-04-11T09:57:36.539Z,500.00
2024-04-11T09:58:36.540Z,499.00
2024-04-11T09:59:36.833Z,495.00
2024-04-11T10:00:36.554Z,492.00
2024-04-11T10:01:36.534Z,493.00
2024-04-11T10:02:36.612Z,495.00
2024-04-11T10:03:36.626Z,495.00
2024-04-11T10:04:36.801Z,497.00
2024-04-11T10:05:36.535Z,500.00
2024-04-11T10:06:36.435Z,496.00
2024-04-11T10:07:36.373Z,495.00
2024-04-11T10:08:36.362Z,495.00
2024-04-11T10:09:36.301Z,493.00
2024-04-11T10:10:36.256Z,494.00
2024-04-11T10:11:36.312Z,495.00
2024-04-11T10:12:36.225Z,497.00
2024-04-11T10:13:36.153Z,498.00
2024-04-11T10:14:36.144Z,498.00
2024-04-11T10:15:36.658Z,497.00
2024-04-11T10:16:36.080Z,495.00
2024-04-11T10:17:36.156Z,496.00
2024-04-11T10:18:36.875Z,497.00
2024-04-11T10:19:36.173Z,500.00
2024-04-11T10:20:36.072Z,500.00
2024-04-11T10:21:41.395Z,500.00
2024-04-11T10:22:35.985Z,497.00
2024-04-11T10:23:35.912Z,496.00
2024-04-11T10:24:36.441Z,496.00
2024-04-11T10:25:35.822Z,494.00
2024-04-11T10:26:35.776Z,493.00
2024-04-11T10:27:36.574Z,489.00
2024-04-11T10:28:35.557Z,487.00
2024-04-11T10:29:35.528Z,490.00
2024-04-11T10:30:35.560Z,493.00
2024-04-11T10:31:35.350Z,497.00
2024-04-11T10:32:35.392Z,501.00
2024-04-11T10:33:35.553Z,503.00
2024-04-11T10:34:35.143Z,505.00
2024-04-11T10:35:35.107Z,503.00
2024-04-11T10:36:35.036Z,502.00
2024-04-11T10:37:35.513Z,487.00
2024-04-11T10:38:35.387Z,500.00
2024-04-11T10:39:34.763Z,497.00
2024-04-11T10:40:34.692Z,498.00
2024-04-11T10:41:34.656Z,502.00
2024-04-11T10:42:34.613Z,505.00
2024-04-11T10:43:34.624Z,502.00
2024-04-11T10:44:34.642Z,503.00
2024-04-11T10:45:34.631Z,500.00
2024-04-11T10:46:34.651Z,499.00
2024-04-11T10:47:34.725Z,500.00
2024-04-11T10:48:34.759Z,508.00
2024-04-11T10:49:34.573Z,508.00
2024-04-11T10:50:34.556Z,506.00
2024-04-11T10:51:34.556Z,503.00
2024-04-11T10:52:34.557Z,506.00
2024-04-11T10:53:34.557Z,509.00
2024-04-11T10:54:34.822Z,509.00
2024-04-11T10:55:34.476Z,507.00
2024-04-11T10:56:34.837Z,502.00
2024-04-11T10:57:34.476Z,504.00
2024-04-11T10:58:34.489Z,500.00
2024-04-11T10:59:34.532Z,503.00
2024-04-11T11:00:34.483Z,501.00
2024-04-11T11:01:35.695Z,504.00
2024-04-11T11:02:34.538Z,504.00
2024-04-11T11:03:34.605Z,507.00
2024-04-11T11:04:34.322Z,502.00
2024-04-11T11:05:34.307Z,494.00
2024-04-11T11:06:34.356Z,499.00
2024-04-11T11:07:34.148Z,502.00
2024-04-11T11:08:34.135Z,505.00
2024-04-11T11:09:34.037Z,508.00
2024-04-11T11:10:33.985Z,509.00
2024-04-11T11:11:34.003Z,507.00
2024-04-11T11:12:33.883Z,505.00
2024-04-11T11:13:33.810Z,506.00
2024-04-11T11:14:34.729Z,507.00
2024-04-11T11:15:33.731Z,505.00
2024-04-11T11:16:33.703Z,504.00
2024-04-11T11:17:33.698Z,504.00
2024-04-11T11:18:33.718Z,503.00
2024-04-11T11:19:33.536Z,503.00
2024-04-11T11:20:33.544Z,502.00
2024-04-11T11:21:33.436Z,507.00
2024-04-11T11:22:33.429Z,501.00
2024-04-11T11:23:33.400Z,504.00
2024-04-11T11:24:33.859Z,507.00
2024-04-11T11:25:33.314Z,506.00
2024-04-11T11:26:33.318Z,503.00
2024-04-11T11:27:33.842Z,498.00
2024-04-11T11:28:33.208Z,508.00
2024-04-11T11:29:33.260Z,498.00
2024-04-11T11:30:33.213Z,494.00
2024-04-11T11:31:33.196Z,496.00
2024-04-11T11:32:33.286Z,497.00
2024-04-11T11:33:33.191Z,498.00
2024-04-11T11:34:33.110Z,498.00
2024-04-11T11:35:33.111Z,516.00
2024-04-11T11:36:33.050Z,502.00
2024-04-11T11:37:33.044Z,498.00
2024-04-11T11:38:33.001Z,495.00
2024-04-11T11:39:33.357Z,497.00
2024-04-11T11:40:32.953Z,496.00
2024-04-11T11:41:32.989Z,491.00
2024-04-11T11:42:32.905Z,496.00
2024-04-11T11:43:32.859Z,493.00
2024-04-11T11:44:32.872Z,495.00
2024-04-11T11:45:32.872Z,494.00
2024-04-11T11:46:32.861Z,500.00
2024-04-11T11:47:33.520Z,503.00
2024-04-11T11:48:33.106Z,501.00
2024-04-11T11:49:32.915Z,498.00
2024-04-11T11:50:33.426Z,498.00
2024-04-11T11:51:32.848Z,501.00
2024-04-11T11:52:32.849Z,504.00
2024-04-11T11:53:33.011Z,505.00
2024-04-11T11:54:32.845Z,505.00
2024-04-11T11:55:33.344Z,504.00
2024-04-11T11:56:32.844Z,504.00
2024-04-11T11:57:32.837Z,500.00
2024-04-11T11:58:32.849Z,496.00
2024-04-11T11:59:32.830Z,496.00
2024-04-11T12:00:32.847Z,495.00
2024-04-11T12:01:32.859Z,494.00
2024-04-11T12:02:32.931Z,494.00
2024-04-11T12:03:35.181Z,494.00
2024-04-11T12:04:32.802Z,494.00
2024-04-11T12:05:32.742Z,495.00
2024-04-11T12:06:32.648Z,492.00
2024-04-11T12:07:32.585Z,494.00
2024-04-11T12:08:32.552Z,495.00
2024-04-11T12:09:32.466Z,495.00
2024-04-11T12:10:32.376Z,497.00
2024-04-11T12:11:32.474Z,498.00
2024-04-11T12:12:35.912Z,498.00
2024-04-11T12:13:32.157Z,499.00
2024-04-11T12:14:32.078Z,497.00
2024-04-11T12:15:32.001Z,499.00
2024-04-11T12:16:32.366Z,501.00
2024-04-11T12:17:31.920Z,498.00
2024-04-11T12:18:31.814Z,498.00
2024-04-11T12:19:31.722Z,495.00
2024-04-11T12:20:31.674Z,494.00
2024-04-11T12:21:31.853Z,492.00
2024-04-11T12:22:31.527Z,498.00
2024-04-11T12:23:31.476Z,495.00
2024-04-11T12:24:31.412Z,497.00
2024-04-11T12:25:31.374Z,498.00
2024-04-11T12:26:31.553Z,496.00
2024-04-11T12:27:31.253Z,496.00
2024-04-11T12:28:31.193Z,497.00
2024-04-11T12:29:31.428Z,499.00
2024-04-11T12:30:31.069Z,498.00